createdAt,value
2018-06-19T00:00:12.927Z,81.70
2018-06-19T00:02:41.948Z,82.20
2018-06-19T00:05:10.935Z,82.60
2018-06-19T00:07:39.936Z,83.40
2018-06-19T00:10:08.948Z,84.00
2018-06-19T00:12:37.945Z,84.00
2018-06-19T00:15:07.181Z,84.50
2018-06-19T00:17:36.898Z,84.50
2018-06-19T00:20:06.064Z,84.00
2018-06-19T00:22:35.094Z,83.90
2018-06-19T00:25:04.116Z,84.10
2018-06-19T00:27:33.135Z,84.20
2018-06-19T00:30:02.120Z,84.50
2018-06-19T00:32:31.159Z,83.90
2018-06-19T00:35:00.139Z,84.40
2018-06-19T00:37:29.149Z,83.50
2018-06-19T00:39:58.141Z,83.70
2018-06-19T00:42:27.120Z,83.60
2018-06-19T00:44:56.292Z,83.70
2018-06-19T00:47:25.281Z,84.30
2018-06-19T00:49:54.268Z,84.90
2018-06-19T00:52:23.282Z,85.20
2018-06-19T00:54:52.423Z,84.60
2018-06-19T00:57:21.462Z,83.80
2018-06-19T00:59:50.453Z,84.30
2018-06-19T01:02:19.464Z,84.60
2018-06-19T01:04:48.451Z,83.60
2018-06-19T01:07:17.467Z,84.60
2018-06-19T01:12:15.450Z,86.00
2018-06-19T01:14:44.463Z,86.30
2018-06-19T01:17:13.446Z,86.40
2018-06-19T01:19:42.772Z,87.60
2018-06-19T01:22:11.808Z,88.30
2018-06-19T01:24:40.820Z,87.80
2018-06-19T01:27:09.836Z,86.70
2018-06-19T01:29:38.855Z,87.40
2018-06-19T01:32:08.037Z,87.80
2018-06-19T01:34:37.063Z,87.60
2018-06-19T01:37:06.056Z,85.60
2018-06-19T01:39:35.028Z,85.20
2018-06-19T01:42:04.049Z,84.90
2018-06-19T01:44:33.040Z,84.10
2018-06-19T01:47:02.054Z,84.60
2018-06-19T01:49:31.035Z,85.50
2018-06-19T01:52:00.078Z,85.90
2018-06-19T01:54:29.061Z,86.70
2018-06-19T01:56:58.072Z,88.30
2018-06-19T01:59:27.061Z,88.40
2018-06-19T02:01:56.138Z,88.80
2018-06-19T02:04:25.161Z,88.30
2018-06-19T02:06:54.147Z,88.50
2018-06-19T02:09:23.157Z,88.80
2018-06-19T02:11:52.149Z,88.40
2018-06-19T02:14:21.125Z,88.00
2018-06-19T02:16:50.313Z,87.30
2018-06-19T02:19:19.337Z,88.70
2018-06-19T02:21:48.351Z,87.70
2018-06-19T02:24:17.481Z,87.80
2018-06-19T02:26:46.503Z,87.20
2018-06-19T02:29:15.543Z,86.80
2018-06-19T02:31:44.604Z,86.10
2018-06-19T02:34:13.633Z,85.80
2018-06-19T02:36:42.616Z,85.80
2018-06-19T02:39:12.528Z,86.00
2018-06-19T02:41:41.559Z,86.30
2018-06-19T02:44:10.545Z,86.40
2018-06-19T02:46:39.539Z,86.70
2018-06-19T02:49:08.566Z,86.90
2018-06-19T02:51:37.557Z,87.20
2018-06-19T02:54:06.580Z,87.40
2018-06-19T02:56:35.568Z,87.30
2018-06-19T02:59:04.641Z,87.90
2018-06-19T03:01:33.748Z,89.40
2018-06-19T03:04:02.745Z,89.70
2018-06-19T03:06:31.794Z,90.00
2018-06-19T03:09:00.815Z,90.00
2018-06-19T03:11:29.795Z,90.40
2018-06-19T03:13:58.813Z,90.40
2018-06-19T03:16:27.801Z,90.30
2018-06-19T03:18:56.834Z,90.70
2018-06-19T03:21:26.199Z,90.60
2018-06-19T03:23:55.168Z,90.60
2018-06-19T03:26:24.154Z,90.70
2018-06-19T03:28:53.182Z,90.50
2018-06-19T03:31:22.155Z,90.30
2018-06-19T03:33:51.185Z,90.30
2018-06-19T03:36:20.196Z,90.50
2018-06-19T03:38:49.322Z,90.60
2018-06-19T03:41:18.309Z,90.80
2018-06-19T03:43:47.332Z,90.60
2018-06-19T03:46:16.340Z,90.00
2018-06-19T03:48:45.326Z,88.80
2018-06-19T03:51:14.381Z,86.30
2018-06-19T03:53:43.368Z,83.30
2018-06-19T03:56:12.360Z,80.00
2018-06-19T03:58:41.389Z,77.20
2018-06-19T04:01:10.413Z,75.90
2018-06-19T04:03:39.449Z,77.20
2018-06-19T04:06:08.477Z,80.00
2018-06-19T04:08:37.548Z,82.10
2018-06-19T04:11:06.529Z,84.10
2018-06-19T04:13:35.570Z,85.10
2018-06-19T04:16:04.585Z,85.90
2018-06-19T04:18:33.567Z,86.40
2018-06-19T04:21:02.622Z,86.50
2018-06-19T04:23:31.617Z,85.20
2018-06-19T04:26:00.604Z,85.70
2018-06-19T04:28:29.624Z,85.70
2018-06-19T04:30:58.653Z,85.10
2018-06-19T04:33:28.039Z,85.60
2018-06-19T04:35:57.012Z,85.70
2018-06-19T04:38:26.008Z,86.80
2018-06-19T04:40:55.061Z,87.50
2018-06-19T04:43:24.061Z,88.00
2018-06-19T04:45:53.092Z,89.90
2018-06-19T04:48:22.109Z,91.70
2018-06-19T04:50:51.084Z,93.20
2018-06-19T04:53:20.101Z,94.10
2018-06-19T04:55:55.888Z,94.70
2018-06-19T04:58:24.900Z,95.30
2018-06-19T05:00:53.941Z,96.00
2018-06-19T05:03:22.969Z,96.20
2018-06-19T05:05:52.052Z,96.50
2018-06-19T05:08:21.116Z,96.60
2018-06-19T05:10:50.138Z,96.80
2018-06-19T05:13:19.125Z,96.40
2018-06-19T05:15:48.145Z,96.50
2018-06-19T05:18:17.161Z,96.60
2018-06-19T05:20:46.225Z,96.90
2018-06-19T05:23:15.512Z,97.10
2018-06-19T05:28:13.326Z,97.00
2018-06-19T05:30:42.349Z,96.80
2018-06-19T05:33:11.369Z,96.80
2018-06-19T05:35:40.475Z,96.30
2018-06-19T05:38:09.660Z,96.40
2018-06-19T05:40:38.684Z,96.90
2018-06-19T05:43:07.804Z,96.10
2018-06-19T05:45:36.811Z,95.80
2018-06-19T05:48:05.795Z,95.60
2018-06-19T05:50:34.872Z,95.00
2018-06-19T05:53:03.885Z,95.10
2018-06-19T05:55:32.868Z,94.90
2018-06-19T05:58:01.893Z,94.60
2018-06-19T06:00:31.049Z,94.00
2018-06-19T06:03:00.027Z,93.20
2018-06-19T06:05:29.025Z,92.50
2018-06-19T06:10:26.701Z,92.30
2018-06-19T06:12:55.691Z,91.80
2018-06-19T06:15:24.749Z,91.90
2018-06-19T06:17:53.772Z,90.50
2018-06-19T06:20:22.757Z,90.30
2018-06-19T06:25:20.472Z,88.30
2018-06-19T06:27:49.710Z,89.60
2018-06-19T06:30:18.693Z,88.20
2018-06-19T06:32:48.088Z,87.00
2018-06-19T06:35:17.324Z,85.10
2018-06-19T06:37:46.345Z,84.70
2018-06-19T06:40:15.331Z,83.90
2018-06-19T06:42:44.345Z,85.30
2018-06-19T06:45:13.623Z,84.00
2018-06-19T06:47:42.737Z,82.90
2018-06-19T06:50:11.810Z,81.60
2018-06-19T06:52:40.764Z,81.30
2018-06-19T06:55:09.749Z,79.90
2018-06-19T06:57:38.772Z,81.10
2018-06-19T07:00:07.797Z,81.10
2018-06-19T07:02:36.789Z,79.30
2018-06-19T07:05:05.838Z,79.40
2018-06-19T07:07:34.933Z,77.50
2018-06-19T07:10:03.998Z,77.30
2018-06-19T07:12:33.132Z,77.60
2018-06-19T07:15:02.298Z,77.80
2018-06-19T07:17:31.332Z,76.80
2018-06-19T07:20:00.329Z,77.80
2018-06-19T07:22:29.330Z,77.70
2018-06-19T07:27:27.012Z,80.50
2018-06-19T07:29:56.033Z,79.60
2018-06-19T07:34:53.779Z,78.40
2018-06-19T07:37:23.131Z,77.40
2018-06-19T07:39:52.133Z,73.40
2018-06-19T07:42:21.213Z,73.70
2018-06-19T07:44:50.232Z,70.50
2018-06-19T07:47:19.216Z,70.50
2018-06-19T07:49:48.206Z,69.70
2018-06-19T07:52:17.229Z,69.90
2018-06-19T07:54:46.252Z,70.40
2018-06-19T07:57:15.256Z,69.50
2018-06-19T07:59:44.236Z,69.90
2018-06-19T08:02:13.261Z,69.20
2018-06-19T08:04:42.437Z,68.60
2018-06-19T08:07:11.462Z,66.60
2018-06-19T08:09:40.953Z,66.40
2018-06-19T08:12:09.973Z,67.50
2018-06-19T08:17:07.629Z,65.50
2018-06-19T08:19:36.647Z,67.30
2018-06-19T08:22:05.660Z,66.80
2018-06-19T08:24:34.677Z,67.70
2018-06-19T08:27:03.684Z,67.00
2018-06-19T08:29:32.660Z,66.90
2018-06-19T08:32:01.697Z,67.00
2018-06-19T08:34:30.689Z,64.60
2018-06-19T08:36:59.716Z,64.70
2018-06-19T08:39:28.696Z,64.20
2018-06-19T08:41:57.673Z,63.00
2018-06-19T08:44:26.894Z,62.40
2018-06-19T08:46:55.872Z,63.30
2018-06-19T08:49:24.865Z,64.20
2018-06-19T08:51:53.877Z,64.80
2018-06-19T08:54:22.990Z,65.90
2018-06-19T08:56:52.005Z,65.80
2018-06-19T08:59:20.988Z,65.60
2018-06-19T09:01:50.149Z,63.60
2018-06-19T09:04:19.136Z,62.20
2018-06-19T09:06:48.136Z,62.90
2018-06-19T09:09:17.148Z,63.60
2018-06-19T09:11:46.161Z,62.00
2018-06-19T09:14:15.193Z,60.70
2018-06-19T09:16:44.172Z,62.20
2018-06-19T09:19:13.186Z,61.10
2018-06-19T09:21:42.253Z,60.50
2018-06-19T09:26:39.876Z,59.50
2018-06-19T09:29:08.915Z,59.30
2018-06-19T09:31:38.204Z,60.70
2018-06-19T09:34:07.165Z,60.80
2018-06-19T09:36:36.157Z,62.60
2018-06-19T09:39:07.530Z,61.60
2018-06-19T09:41:36.550Z,60.40
2018-06-19T09:44:05.900Z,61.10
2018-06-19T09:46:34.947Z,59.40
2018-06-19T09:49:03.956Z,58.80
2018-06-19T09:54:01.681Z,59.30
2018-06-19T09:56:30.660Z,59.40
2018-06-19T09:58:59.770Z,60.20
2018-06-19T10:01:28.811Z,59.40
2018-06-19T10:03:57.838Z,59.80
2018-06-19T10:06:26.890Z,57.70
2018-06-19T10:08:55.881Z,57.30
2018-06-19T10:11:24.861Z,59.00
2018-06-19T10:13:54.080Z,57.40
2018-06-19T10:16:23.061Z,55.70
2018-06-19T10:18:52.069Z,55.60
2018-06-19T10:21:21.083Z,57.00
2018-06-19T10:23:50.085Z,57.70
2018-06-19T10:26:19.105Z,57.70
2018-06-19T10:28:48.172Z,57.90
2018-06-19T10:31:17.392Z,56.50
2018-06-19T10:33:47.429Z,57.90
2018-06-19T10:36:16.451Z,58.00
2018-06-19T10:38:45.474Z,57.70
2018-06-19T10:41:14.485Z,57.70
2018-06-19T10:43:43.493Z,57.00
2018-06-19T10:46:12.670Z,57.40
2018-06-19T10:48:41.685Z,57.30
2018-06-19T10:51:10.730Z,56.60
2018-06-19T10:53:39.778Z,55.10
2018-06-19T10:56:08.833Z,56.50
2018-06-19T10:58:37.837Z,57.70
2018-06-19T11:01:06.877Z,56.90
2018-06-19T11:03:35.954Z,56.90
2018-06-19T11:06:05.014Z,57.90
2018-06-19T11:08:34.062Z,57.90
2018-06-19T11:11:03.070Z,57.50
2018-06-19T11:13:32.097Z,55.70
2018-06-19T11:16:01.255Z,56.50
2018-06-19T11:18:30.224Z,57.20
2018-06-19T11:20:59.209Z,56.70
2018-06-19T11:23:28.223Z,57.50
2018-06-19T11:25:57.405Z,57.70
2018-06-19T11:28:27.424Z,56.90
2018-06-19T11:30:56.405Z,56.00
2018-06-19T11:33:25.436Z,56.90
2018-06-19T11:35:54.441Z,57.40
2018-06-19T11:38:23.428Z,56.30
2018-06-19T11:40:52.449Z,56.50
2018-06-19T11:43:21.522Z,56.60
2018-06-19T11:45:50.476Z,56.30
2018-06-19T11:48:19.457Z,57.00
2018-06-19T11:50:48.562Z,58.60
2018-06-19T11:53:17.548Z,58.70
2018-06-19T11:55:46.584Z,57.80
2018-06-19T11:58:15.593Z,58.40
2018-06-19T12:00:44.568Z,58.40
2018-06-19T12:03:13.589Z,57.80
2018-06-19T12:05:42.609Z,57.30
2018-06-19T12:08:11.600Z,56.50
2018-06-19T12:10:40.585Z,57.10
2018-06-19T12:13:09.640Z,56.50
2018-06-19T12:15:38.689Z,57.00
2018-06-19T12:18:07.680Z,57.50
2018-06-19T12:20:36.660Z,57.70
2018-06-19T12:23:06.109Z,57.10
2018-06-19T12:25:35.157Z,56.60
2018-06-19T12:28:04.160Z,56.00
2018-06-19T12:30:33.217Z,56.20
2018-06-19T12:33:02.250Z,55.60
2018-06-19T12:37:59.951Z,54.80
2018-06-19T12:40:28.969Z,55.60
2018-06-19T12:42:58.043Z,55.80
2018-06-19T12:45:27.029Z,56.00
2018-06-19T12:47:56.001Z,55.30
2018-06-19T12:50:41.489Z,56.70
2018-06-19T12:53:22.031Z,55.70
2018-06-19T12:56:02.741Z,55.20
2018-06-19T12:58:31.733Z,55.60
2018-06-19T13:01:00.753Z,55.80
2018-06-19T13:03:41.153Z,55.40
2018-06-19T13:06:21.498Z,55.90
2018-06-19T13:08:50.547Z,55.60
2018-06-19T13:11:19.570Z,56.20
2018-06-19T13:13:59.841Z,55.40
2018-06-19T13:16:40.712Z,54.80
2018-06-19T13:19:24.400Z,53.90
2018-06-19T13:24:22.765Z,53.10
2018-06-19T13:26:51.748Z,54.00
2018-06-19T13:29:43.488Z,53.50
2018-06-19T13:32:12.534Z,54.30
2018-06-19T13:34:41.517Z,54.60
2018-06-19T13:37:10.533Z,54.80
2018-06-19T13:39:40.332Z,53.90
2018-06-19T13:42:21.872Z,54.10
2018-06-19T13:44:58.252Z,52.40
2018-06-19T13:47:27.328Z,52.20
2018-06-19T13:49:56.321Z,52.50
2018-06-19T13:52:25.446Z,54.80
2018-06-19T13:56:06.141Z,56.30
2018-06-19T13:58:35.729Z,56.90
2018-06-19T14:01:04.723Z,57.40
2018-06-19T14:03:33.916Z,56.20
2018-06-19T14:06:02.907Z,56.60
2018-06-19T14:08:53.999Z,57.10
2018-06-19T14:11:34.506Z,56.80
2018-06-19T14:14:03.532Z,56.50
2018-06-19T14:16:32.513Z,56.00
2018-06-19T14:19:01.580Z,56.70
2018-06-19T14:21:30.539Z,57.80
2018-06-19T14:23:59.541Z,57.80
2018-06-19T14:26:28.560Z,58.70
2018-06-19T14:28:57.559Z,59.20
2018-06-19T14:31:26.579Z,59.70
2018-06-19T14:33:55.579Z,59.00
2018-06-19T14:36:24.624Z,59.00
2018-06-19T14:38:53.701Z,59.50
2018-06-19T14:41:23.464Z,58.40
2018-06-19T14:43:52.457Z,59.00
2018-06-19T14:46:21.455Z,58.60
2018-06-19T14:48:50.500Z,58.90
2018-06-19T14:51:19.489Z,59.10
2018-06-19T14:53:48.477Z,58.70
2018-06-19T14:56:17.509Z,59.40
2018-06-19T14:58:46.516Z,58.80
2018-06-19T15:01:15.545Z,58.90
2018-06-19T15:03:44.608Z,59.60
2018-06-19T15:06:13.620Z,59.40
2018-06-19T15:08:42.699Z,59.80
2018-06-19T15:11:11.684Z,59.80
2018-06-19T15:13:40.675Z,60.10
2018-06-19T15:16:09.896Z,60.10
2018-06-19T15:18:38.905Z,60.40
2018-06-19T15:21:07.907Z,60.50
2018-06-19T15:23:36.961Z,61.20
2018-06-19T15:26:06.011Z,60.60
2018-06-19T15:28:35.033Z,61.40
2018-06-19T15:31:04.232Z,62.40
2018-06-19T15:33:33.276Z,62.70
2018-06-19T15:36:02.285Z,63.00
2018-06-19T15:38:31.455Z,63.30
2018-06-19T15:41:00.504Z,63.80
2018-06-19T15:43:29.809Z,63.80
2018-06-19T15:45:58.844Z,64.00
2018-06-19T15:48:27.897Z,64.50
2018-06-19T15:50:56.889Z,64.90
2018-06-19T15:53:26.128Z,65.20
2018-06-19T15:55:55.113Z,64.90
2018-06-19T15:58:24.173Z,65.00
2018-06-19T16:00:53.192Z,65.20
2018-06-19T16:03:22.237Z,65.90
2018-06-19T16:05:51.260Z,65.80
2018-06-19T16:08:20.473Z,65.90
2018-06-19T16:10:50.108Z,65.70
2018-06-19T16:15:47.801Z,66.40
2018-06-19T16:18:16.869Z,66.40
2018-06-19T16:20:45.872Z,64.70
2018-06-19T16:23:14.861Z,64.90
2018-06-19T16:25:43.877Z,65.80
2018-06-19T16:28:12.927Z,66.20
2018-06-19T16:30:42.121Z,67.10
2018-06-19T16:33:11.256Z,66.30
2018-06-19T16:35:40.267Z,66.10
2018-06-19T16:38:09.480Z,65.60
2018-06-19T16:40:38.477Z,63.60
2018-06-19T16:43:07.521Z,62.80
2018-06-19T16:45:36.536Z,64.00
2018-06-19T16:48:05.845Z,64.20
2018-06-19T16:50:35.116Z,65.60
2018-06-19T16:53:04.104Z,66.40
2018-06-19T16:55:33.210Z,66.30
2018-06-19T16:58:02.208Z,66.70
2018-06-19T17:00:31.283Z,66.40
2018-06-19T17:03:00.274Z,66.00
2018-06-19T17:05:29.273Z,66.00
2018-06-19T17:10:26.992Z,66.20
2018-06-19T17:12:55.991Z,66.90
2018-06-19T17:15:25.008Z,66.20
2018-06-19T17:17:54.024Z,67.00
2018-06-19T17:20:23.109Z,67.00
2018-06-19T17:25:20.844Z,66.80
2018-06-19T17:27:49.841Z,65.70
2018-06-19T17:30:18.890Z,66.50
2018-06-19T17:32:47.924Z,66.00
2018-06-19T17:35:16.918Z,66.10
2018-06-19T17:37:45.942Z,66.70
2018-06-19T17:40:15.108Z,66.30
2018-06-19T17:42:44.129Z,65.80
2018-06-19T17:45:13.114Z,63.20
2018-06-19T17:47:42.133Z,62.70
2018-06-19T17:50:11.112Z,61.40
2018-06-19T17:52:40.105Z,60.40
2018-06-19T17:55:09.125Z,60.40
2018-06-19T17:57:38.109Z,58.60
2018-06-19T18:00:07.128Z,56.90
2018-06-19T18:02:36.144Z,56.40
2018-06-19T18:05:05.181Z,57.30
2018-06-19T18:07:34.169Z,58.30
2018-06-19T18:10:03.222Z,58.60
2018-06-19T18:12:32.223Z,60.00
2018-06-19T18:15:01.213Z,60.40
2018-06-19T18:17:30.500Z,62.00
2018-06-19T18:19:59.502Z,63.80
2018-06-19T18:22:28.484Z,65.20
2018-06-19T18:24:57.724Z,65.80
2018-06-19T18:27:26.725Z,66.30
2018-06-19T18:29:55.713Z,66.80
2018-06-19T18:32:24.929Z,66.70
2018-06-19T18:34:53.949Z,67.40
2018-06-19T18:37:22.972Z,67.90
2018-06-19T18:39:51.952Z,68.40
2018-06-19T18:42:21.021Z,69.30
2018-06-19T18:44:50.141Z,69.70
2018-06-19T18:47:19.126Z,70.20
2018-06-19T18:49:48.391Z,70.70
2018-06-19T18:52:17.397Z,71.00
2018-06-19T18:54:46.390Z,71.50
2018-06-19T18:57:15.726Z,71.50
2018-06-19T18:59:44.723Z,71.50
2018-06-19T19:02:13.728Z,71.70
2018-06-19T19:04:42.745Z,72.10
2018-06-19T19:07:11.734Z,72.70
2018-06-19T19:09:45.008Z,72.80
2018-06-19T19:12:14.459Z,72.90
2018-06-19T19:14:50.301Z,73.80
2018-06-19T19:17:24.772Z,74.10
2018-06-19T19:19:53.780Z,73.70
2018-06-19T19:22:22.833Z,74.50
2018-06-19T19:24:51.858Z,75.10
2018-06-19T19:27:26.291Z,75.70
2018-06-19T19:29:55.285Z,76.30
2018-06-19T19:32:24.317Z,76.70
2018-06-19T19:34:53.305Z,76.30
2018-06-19T19:37:27.868Z,76.80
2018-06-19T19:39:56.948Z,76.60
2018-06-19T19:42:25.968Z,76.90
2018-06-19T19:44:54.965Z,77.30
2018-06-19T19:50:12.970Z,78.10
2018-06-19T19:52:42.197Z,78.50
2018-06-19T19:55:11.188Z,78.80
2018-06-19T19:57:45.647Z,78.80
2018-06-19T20:00:19.637Z,79.30
2018-06-19T20:02:49.444Z,78.80
2018-06-19T20:05:18.427Z,79.10
2018-06-19T20:07:47.423Z,79.30
2018-06-19T20:10:16.576Z,79.90
2018-06-19T20:12:45.565Z,80.20
2018-06-19T20:15:14.556Z,80.90
2018-06-19T20:17:43.630Z,81.80
2018-06-19T20:20:12.571Z,82.10
2018-06-19T20:22:41.588Z,82.20
2018-06-19T20:25:10.978Z,81.40
2018-06-19T20:27:40.021Z,81.80
2018-06-19T20:30:09.945Z,82.00
2018-06-19T20:32:39.397Z,82.40
2018-06-19T20:35:08.389Z,82.70
2018-06-19T20:37:37.381Z,83.30
2018-06-19T20:40:06.421Z,83.80
2018-06-19T20:42:35.761Z,84.00
2018-06-19T20:45:04.833Z,84.20
2018-06-19T20:47:33.812Z,84.40
2018-06-19T20:50:02.888Z,84.50
2018-06-19T20:52:31.900Z,84.70
2018-06-19T20:55:00.944Z,85.00
2018-06-19T20:57:29.942Z,85.30
2018-06-19T20:59:58.925Z,85.50
2018-06-19T21:02:28.032Z,85.70
2018-06-19T21:04:57.033Z,85.80
2018-06-19T21:07:26.044Z,85.90
2018-06-19T21:09:55.140Z,86.20
2018-06-19T21:12:24.164Z,86.30
2018-06-19T21:14:53.189Z,86.30
2018-06-19T21:17:22.288Z,86.40
2018-06-19T21:19:51.304Z,86.70
2018-06-19T21:22:20.288Z,87.70
2018-06-19T21:24:49.278Z,87.40
2018-06-19T21:27:18.292Z,87.80
2018-06-19T21:29:47.276Z,87.70
2018-06-19T21:34:45.262Z,88.30
2018-06-19T21:37:14.251Z,88.60
2018-06-19T21:39:43.469Z,88.90
2018-06-19T21:42:12.448Z,89.20
2018-06-19T21:44:41.435Z,89.40
2018-06-19T21:47:10.453Z,89.70
2018-06-19T21:49:39.432Z,89.70
2018-06-19T21:52:08.507Z,89.70
2018-06-19T21:54:38.393Z,89.70
2018-06-19T21:57:07.681Z,90.00
2018-06-19T21:59:36.677Z,90.10
2018-06-19T22:02:05.699Z,90.10
2018-06-19T22:04:34.671Z,90.00
2018-06-19T22:07:03.661Z,90.00
2018-06-19T22:09:32.673Z,90.10
2018-06-19T22:12:01.684Z,90.20
2018-06-19T22:14:30.665Z,90.20
2018-06-19T22:16:59.729Z,90.20
2018-06-19T22:19:28.703Z,90.10
2018-06-19T22:21:57.747Z,89.80
2018-06-19T22:26:55.385Z,90.10
2018-06-19T22:29:24.402Z,90.00
2018-06-19T22:31:53.552Z,90.10
2018-06-19T22:34:22.528Z,90.30
2018-06-19T22:36:51.565Z,90.10
2018-06-19T22:39:20.541Z,90.20
2018-06-19T22:41:49.579Z,90.20
2018-06-19T22:44:18.590Z,90.30
2018-06-19T22:46:47.864Z,90.40
2018-06-19T22:49:16.854Z,90.50
2018-06-19T22:51:45.837Z,90.60
2018-06-19T22:54:14.844Z,90.80
2018-06-19T22:56:43.828Z,91.10
2018-06-19T22:59:12.885Z,91.10
2018-06-19T23:01:41.965Z,91.30
2018-06-19T23:04:11.051Z,91.70
2018-06-19T23:06:40.069Z,91.90
2018-06-19T23:09:09.357Z,92.00
2018-06-19T23:11:38.561Z,92.30
2018-06-19T23:14:07.585Z,93.00
2018-06-19T23:16:36.919Z,93.00
2018-06-19T23:19:05.940Z,93.50
2018-06-19T23:21:34.929Z,93.60
2018-06-19T23:24:04.084Z,93.70
2018-06-19T23:26:33.124Z,93.90
2018-06-19T23:29:02.121Z,94.00
2018-06-19T23:31:31.154Z,94.00
2018-06-19T23:34:00.512Z,94.00
2018-06-19T23:36:29.526Z,94.00
2018-06-19T23:38:58.500Z,94.30
2018-06-19T23:41:27.507Z,94.30
2018-06-19T23:43:56.492Z,94.40
2018-06-19T23:46:25.519Z,94.80
2018-06-19T23:48:54.548Z,95.70
2018-06-19T23:51:23.572Z,95.30
2018-06-19T23:53:52.588Z,95.20
2018-06-19T23:56:21.573Z,95.20
2018-06-19T23:58:50.565Z,95.60
